Terminal Aerodrome Forecast
Issued by NWS Tallahassee, FL

Home | Current Version | Previous Version | Text Only | Print | Product List | Glossary On
Versions: 1 2 3 4 5 6 7 8 9 10 11 12 13 14 15 16 17 18
000
FTUS42 KTAE 310525
TAFTLH
TAF
KTLH 310525Z 3106/0106 22003KT 5SM BR SCT001
      TEMPO 3106/3108 4SM BR OVC001
     FM311000 23003KT 5SM BR SCT002
     FM311300 26005KT P6SM BKN030
     FM311800 18008KT P6SM VCTS BKN035CB
     FM010100 14003KT P6SM SCT030 BKN100=

USA.gov is the U.S. government's official web portal to all federal, state and local government web resources and services.